createdAt,value
2018-06-29T00:00:31.027Z,5.80
2018-06-29T00:03:00.120Z,6.00
2018-06-29T00:05:29.207Z,5.80
2018-06-29T00:07:58.851Z,5.87
2018-06-29T00:10:28.184Z,5.73
2018-06-29T00:12:57.523Z,6.40
2018-06-29T00:15:26.617Z,5.47
2018-06-29T00:17:55.971Z,5.27
2018-06-29T00:20:25.324Z,6.00
2018-06-29T00:22:54.479Z,5.67
2018-06-29T00:25:23.826Z,5.60
2018-06-29T00:27:52.923Z,5.87
2018-06-29T00:30:22.012Z,5.67
2018-06-29T00:32:51.356Z,5.20
2018-06-29T00:35:20.698Z,5.37
2018-06-29T00:37:50.026Z,5.83
2018-06-29T00:40:19.376Z,6.23
2018-06-29T00:42:48.712Z,6.40
2018-06-29T00:45:17.818Z,5.83
2018-06-29T00:47:46.901Z,5.83
2018-06-29T00:50:16.256Z,6.10
2018-06-29T00:52:45.592Z,6.03
2018-06-29T00:55:14.997Z,6.27
2018-06-29T00:57:44.284Z,5.80
2018-06-29T01:00:13.628Z,5.67
2018-06-29T01:02:43.013Z,5.93
2018-06-29T01:05:12.157Z,6.03
2018-06-29T01:07:41.540Z,6.07
2018-06-29T01:10:10.920Z,6.13
2018-06-29T01:12:40.039Z,6.07
2018-06-29T01:15:09.433Z,6.27
2018-06-29T01:17:38.828Z,6.30
2018-06-29T01:20:09.095Z,6.92
2018-06-29T01:22:38.501Z,6.07
2018-06-29T01:25:08.099Z,6.27
2018-06-29T01:27:37.478Z,6.77
2018-06-29T01:30:06.873Z,6.70
2018-06-29T01:32:36.257Z,6.47
2018-06-29T01:35:05.653Z,6.83
2018-06-29T01:37:34.785Z,6.47
2018-06-29T01:40:04.481Z,6.63
2018-06-29T01:42:33.853Z,6.30
2018-06-29T01:45:02.981Z,6.63
2018-06-29T01:47:32.367Z,6.47
2018-06-29T01:50:01.838Z,6.60
2018-06-29T01:52:31.272Z,6.97
2018-06-29T01:55:00.600Z,7.07
2018-06-29T01:57:29.974Z,6.87
2018-06-29T01:59:59.357Z,6.37
2018-06-29T02:02:28.742Z,6.63
2018-06-29T02:04:58.129Z,6.97
2018-06-29T02:07:27.505Z,6.03
2018-06-29T02:09:56.909Z,7.10
2018-06-29T02:12:26.275Z,6.37
2018-06-29T02:14:55.657Z,6.13
2018-06-29T02:17:25.053Z,7.10
2018-06-29T02:19:54.435Z,6.70
2018-06-29T02:22:23.821Z,6.43
2018-06-29T02:24:53.203Z,6.40
2018-06-29T02:27:22.593Z,6.67
2018-06-29T02:29:51.988Z,7.00
2018-06-29T02:32:21.342Z,7.37
2018-06-29T02:34:50.738Z,6.80
2018-06-29T02:37:20.120Z,6.97
2018-06-29T02:39:49.490Z,7.23
2018-06-29T02:42:18.621Z,7.10
2018-06-29T02:44:48.008Z,6.80
2018-06-29T02:47:17.395Z,7.47
2018-06-29T02:49:46.773Z,7.13
2018-06-29T02:52:16.172Z,7.15
2018-06-29T02:54:45.550Z,7.10
2018-06-29T02:57:14.934Z,6.87
2018-06-29T02:59:44.291Z,6.77
2018-06-29T03:02:13.640Z,6.90
2018-06-29T03:04:43.001Z,7.27
2018-06-29T03:07:12.113Z,6.77
2018-06-29T03:09:41.521Z,7.03
2018-06-29T03:12:10.928Z,6.63
2018-06-29T03:14:40.281Z,7.17
2018-06-29T03:17:09.672Z,6.90
2018-06-29T03:19:38.976Z,6.70
2018-06-29T03:22:08.995Z,6.78
2018-06-29T03:24:38.280Z,7.00
2018-06-29T03:27:07.605Z,6.60
2018-06-29T03:29:36.908Z,6.83
2018-06-29T03:32:06.209Z,7.20
2018-06-29T03:34:35.505Z,7.37
2018-06-29T03:37:04.838Z,7.60
2018-06-29T03:39:34.133Z,7.67
2018-06-29T03:42:03.447Z,7.60
2018-06-29T03:44:32.751Z,7.37
2018-06-29T03:47:02.092Z,7.17
2018-06-29T03:49:31.412Z,8.43
2018-06-29T03:52:00.719Z,7.57
2018-06-29T03:54:29.785Z,7.57
2018-06-29T03:56:59.091Z,9.13
2018-06-29T03:59:28.388Z,9.73
2018-06-29T04:01:57.692Z,9.57
2018-06-29T04:04:26.993Z,9.53
2018-06-29T04:06:56.300Z,10.53
2018-06-29T04:09:25.601Z,9.33
2018-06-29T04:11:54.909Z,9.73
2018-06-29T04:14:23.979Z,9.60
2018-06-29T04:16:53.290Z,10.00
2018-06-29T04:19:22.693Z,10.27
2018-06-29T04:21:52.064Z,10.10
2018-06-29T04:24:21.429Z,10.63
2018-06-29T04:26:50.793Z,9.77
2018-06-29T04:29:20.196Z,9.53
2018-06-29T04:31:49.561Z,10.50
2018-06-29T04:34:18.936Z,11.27
2018-06-29T04:36:48.325Z,11.43
2018-06-29T04:39:17.710Z,11.07
2018-06-29T04:41:47.104Z,11.50
2018-06-29T04:44:16.509Z,10.77
2018-06-29T04:46:45.919Z,10.87
2018-06-29T04:49:15.052Z,10.63
2018-06-29T04:51:44.426Z,11.37
2018-06-29T04:54:13.548Z,11.10
2018-06-29T04:56:42.949Z,11.17
2018-06-29T04:59:12.377Z,11.23
2018-06-29T05:01:41.756Z,11.30
2018-06-29T05:04:11.153Z,10.97
2018-06-29T05:06:40.531Z,12.13
2018-06-29T05:09:09.976Z,11.37
2018-06-29T05:11:39.654Z,11.10
2018-06-29T05:14:09.061Z,10.57
2018-06-29T05:16:38.462Z,11.27
2018-06-29T05:19:07.794Z,11.37
2018-06-29T05:21:37.104Z,11.70
2018-06-29T05:24:06.429Z,11.67
2018-06-29T05:26:35.742Z,11.30
2018-06-29T05:29:04.837Z,11.27
2018-06-29T05:31:33.908Z,11.17
2018-06-29T05:34:03.245Z,11.53
2018-06-29T05:36:32.565Z,11.27
2018-06-29T05:39:01.890Z,11.63
2018-06-29T05:41:31.429Z,11.23
2018-06-29T05:44:00.449Z,11.77
2018-06-29T05:46:29.773Z,11.50
2018-06-29T05:48:59.089Z,12.07
2018-06-29T05:51:28.412Z,11.67
2018-06-29T05:53:57.722Z,10.23
2018-06-29T05:56:27.034Z,10.90
2018-06-29T05:58:56.357Z,11.63
2018-06-29T06:01:25.701Z,11.90
2018-06-29T06:03:55.013Z,10.97
2018-06-29T06:06:24.337Z,10.63
2018-06-29T06:08:53.425Z,10.37
2018-06-29T06:11:22.750Z,11.87
2018-06-29T06:13:52.082Z,11.87
2018-06-29T06:16:21.406Z,11.35
2018-06-29T06:19:01.143Z,12.00
2018-06-29T06:21:30.469Z,10.63
2018-06-29T06:23:59.805Z,11.30
2018-06-29T06:26:29.166Z,11.53
2018-06-29T06:28:58.496Z,11.60
2018-06-29T06:31:27.844Z,10.57
2018-06-29T06:33:57.153Z,11.30
2018-06-29T06:36:26.476Z,11.43
2018-06-29T06:38:55.551Z,11.57
2018-06-29T06:41:24.872Z,11.67
2018-06-29T06:43:53.973Z,11.37
2018-06-29T06:46:23.121Z,12.93
2018-06-29T06:48:52.462Z,12.33
2018-06-29T06:51:21.811Z,12.77
2018-06-29T06:53:51.126Z,11.10
2018-06-29T06:56:20.458Z,11.27
2018-06-29T06:58:49.767Z,11.97
2018-06-29T07:01:18.860Z,11.30
2018-06-29T07:03:47.949Z,12.33
2018-06-29T07:06:17.290Z,10.87
2018-06-29T07:08:46.607Z,11.03
2018-06-29T07:11:15.932Z,10.53
2018-06-29T07:13:45.263Z,10.97
2018-06-29T07:16:14.596Z,10.70
2018-06-29T07:18:43.987Z,10.27
2018-06-29T07:21:13.384Z,11.33
2018-06-29T07:23:42.822Z,10.33
2018-06-29T07:26:12.188Z,10.20
2018-06-29T07:28:41.565Z,9.80
2018-06-29T07:31:10.681Z,10.50
2018-06-29T07:33:40.057Z,9.17
2018-06-29T07:36:09.451Z,8.80
2018-06-29T07:38:38.862Z,8.70
2018-06-29T07:41:08.197Z,9.03
2018-06-29T07:43:37.562Z,9.13
2018-06-29T07:46:08.215Z,9.40
2018-06-29T07:48:37.587Z,9.43
2018-06-29T07:51:07.368Z,8.73
2018-06-29T07:53:36.745Z,8.33
2018-06-29T07:56:06.915Z,8.70
2018-06-29T07:58:36.322Z,8.43
2018-06-29T08:01:05.672Z,8.23
2018-06-29T08:03:36.082Z,8.97
2018-06-29T08:06:05.504Z,8.73
2018-06-29T08:08:34.876Z,7.70
2018-06-29T08:11:03.980Z,7.70
2018-06-29T08:13:33.351Z,7.63
2018-06-29T08:16:02.713Z,7.60
2018-06-29T08:18:32.096Z,8.13
2018-06-29T08:21:01.470Z,7.20
2018-06-29T08:23:31.374Z,8.17
2018-06-29T08:26:17.600Z,7.40
2018-06-29T08:28:46.962Z,7.27
2018-06-29T08:31:16.337Z,7.05
2018-06-29T08:33:45.727Z,6.57
2018-06-29T08:36:15.105Z,7.03
2018-06-29T08:38:45.234Z,7.57
2018-06-29T08:41:14.530Z,6.40
2018-06-29T08:43:43.900Z,6.87
2018-06-29T08:46:13.275Z,6.57
2018-06-29T08:48:42.629Z,6.53
2018-06-29T08:51:12.024Z,6.87
2018-06-29T08:53:41.385Z,6.50
2018-06-29T08:56:10.741Z,7.13
2018-06-29T08:58:40.123Z,6.27
2018-06-29T09:01:09.230Z,6.40
2018-06-29T09:03:38.623Z,6.83
2018-06-29T09:06:08.987Z,7.30
2018-06-29T09:08:38.353Z,6.57
2018-06-29T09:11:07.753Z,6.33
2018-06-29T09:13:37.093Z,7.20
2018-06-29T09:16:06.488Z,7.07
2018-06-29T09:18:35.800Z,7.37
2018-06-29T09:21:05.102Z,6.70
2018-06-29T09:23:34.438Z,6.57
2018-06-29T09:26:03.747Z,6.63
2018-06-29T09:28:32.816Z,6.70
2018-06-29T09:31:02.118Z,6.67
2018-06-29T09:33:31.425Z,6.73
2018-06-29T09:36:00.765Z,7.03
2018-06-29T09:38:30.081Z,7.28
2018-06-29T09:40:59.386Z,7.00
2018-06-29T09:43:28.708Z,6.70
2018-06-29T09:45:57.996Z,6.90
2018-06-29T09:48:27.310Z,7.27
2018-06-29T09:50:56.603Z,7.17
2018-06-29T09:53:25.919Z,6.47
2018-06-29T09:55:55.241Z,7.77
2018-06-29T09:58:24.324Z,7.10
2018-06-29T10:00:55.412Z,7.37
2018-06-29T10:03:22.997Z,8.17
2018-06-29T10:05:52.289Z,8.60
2018-06-29T10:08:21.601Z,7.60
2018-06-29T10:10:50.921Z,7.90
2018-06-29T10:13:20.224Z,7.47
2018-06-29T10:15:49.534Z,7.20
2018-06-29T10:18:18.633Z,7.00
2018-06-29T10:20:47.700Z,6.37
2018-06-29T10:23:17.012Z,6.70
2018-06-29T10:25:46.329Z,6.93
2018-06-29T10:28:15.765Z,6.47
2018-06-29T10:30:45.075Z,6.77
2018-06-29T10:33:14.465Z,7.20
2018-06-29T10:35:43.780Z,6.50
2018-06-29T10:38:13.101Z,6.17
2018-06-29T10:40:42.404Z,6.70
2018-06-29T10:43:11.765Z,6.33
2018-06-29T10:45:41.087Z,5.57
2018-06-29T10:48:10.395Z,6.10
2018-06-29T10:50:39.713Z,5.53
2018-06-29T10:53:09.020Z,5.60
2018-06-29T10:55:38.337Z,6.03
2018-06-29T10:58:08.953Z,5.77
2018-06-29T11:00:38.282Z,5.83
2018-06-29T11:03:07.754Z,5.47
2018-06-29T11:05:37.201Z,6.07
2018-06-29T11:08:06.127Z,5.97
2018-06-29T11:10:35.442Z,5.43
2018-06-29T11:13:04.752Z,5.10
2018-06-29T11:15:34.065Z,5.70
2018-06-29T11:18:03.368Z,4.90
2018-06-29T11:20:32.771Z,4.47
2018-06-29T11:23:01.873Z,5.37
2018-06-29T11:25:31.257Z,4.83
2018-06-29T11:28:00.614Z,4.77
2018-06-29T11:30:29.981Z,4.87
2018-06-29T11:32:59.357Z,4.67
2018-06-29T11:35:28.738Z,4.60
2018-06-29T11:37:58.121Z,4.80
2018-06-29T11:40:27.504Z,4.87
2018-06-29T11:42:56.874Z,4.70
2018-06-29T11:45:26.249Z,5.03
2018-06-29T11:47:55.619Z,4.93
2018-06-29T11:50:24.990Z,4.77
2018-06-29T11:52:54.568Z,4.97
2018-06-29T11:55:23.961Z,4.87
2018-06-29T11:57:53.332Z,4.93
2018-06-29T12:00:22.833Z,5.05
2018-06-29T12:02:52.530Z,4.70
2018-06-29T12:05:21.829Z,4.27
2018-06-29T12:07:51.147Z,4.30
2018-06-29T12:10:20.464Z,4.77
2018-06-29T12:12:49.787Z,4.87
2018-06-29T12:15:19.102Z,4.47
2018-06-29T12:17:48.441Z,4.50
2018-06-29T12:20:17.816Z,4.20
2018-06-29T12:22:47.186Z,3.73
2018-06-29T12:25:16.549Z,3.80
2018-06-29T12:27:45.921Z,4.20
2018-06-29T12:30:15.295Z,4.37
2018-06-29T12:32:44.668Z,4.33
2018-06-29T12:35:14.017Z,4.50
2018-06-29T12:37:43.409Z,4.53
2018-06-29T12:40:12.800Z,4.53
2018-06-29T12:42:42.181Z,4.40
2018-06-29T12:45:11.582Z,4.00
2018-06-29T12:47:40.949Z,4.27
2018-06-29T12:50:10.310Z,4.03
2018-06-29T12:52:39.686Z,3.93
2018-06-29T12:55:09.041Z,4.10
2018-06-29T12:57:38.416Z,4.30
2018-06-29T13:00:09.162Z,4.33
2018-06-29T13:02:38.285Z,4.30
2018-06-29T13:05:07.686Z,4.17
2018-06-29T13:07:37.106Z,4.70
2018-06-29T13:10:06.469Z,4.20
2018-06-29T13:12:35.576Z,3.83
2018-06-29T13:15:04.964Z,4.00
2018-06-29T13:17:34.341Z,4.20
2018-06-29T13:20:03.749Z,3.70
2018-06-29T13:22:33.106Z,4.00
2018-06-29T13:25:02.590Z,4.50
2018-06-29T13:27:31.599Z,4.42
2018-06-29T13:30:00.950Z,4.17
2018-06-29T13:32:30.342Z,4.40
2018-06-29T13:34:59.699Z,4.17
2018-06-29T13:37:29.057Z,4.20
2018-06-29T13:39:58.429Z,4.35
2018-06-29T13:42:27.821Z,4.53
2018-06-29T13:44:57.214Z,4.03
2018-06-29T13:47:26.593Z,3.97
2018-06-29T13:49:55.994Z,4.87
2018-06-29T13:52:25.349Z,4.10
2018-06-29T13:54:54.853Z,4.27
2018-06-29T13:57:24.165Z,3.93
2018-06-29T13:59:53.570Z,4.60
2018-06-29T14:02:22.933Z,4.03
2018-06-29T14:04:52.282Z,4.33
2018-06-29T14:07:21.408Z,4.08
2018-06-29T14:09:50.786Z,3.83
2018-06-29T14:12:19.891Z,4.20
2018-06-29T14:14:49.282Z,3.80
2018-06-29T14:17:18.386Z,4.83
2018-06-29T14:19:47.786Z,4.15
2018-06-29T14:22:17.163Z,4.10
2018-06-29T14:24:46.574Z,4.15
2018-06-29T14:27:15.910Z,3.85
2018-06-29T14:29:45.296Z,3.80
2018-06-29T14:32:14.676Z,4.08
2018-06-29T14:34:43.792Z,4.08
2018-06-29T14:37:13.169Z,4.42
2018-06-29T14:39:42.561Z,4.37
2018-06-29T14:42:11.934Z,3.67
2018-06-29T14:44:41.312Z,3.60
2018-06-29T14:47:11.054Z,4.03
2018-06-29T14:49:40.953Z,3.95
2018-06-29T14:52:10.309Z,4.08
2018-06-29T14:54:40.426Z,3.37
2018-06-29T14:57:09.917Z,3.52
2018-06-29T14:59:39.749Z,3.75
2018-06-29T15:02:09.693Z,3.80
2018-06-29T15:04:39.226Z,3.52
2018-06-29T15:07:08.670Z,3.70
2018-06-29T15:09:37.861Z,3.72
2018-06-29T15:12:07.486Z,3.67
2018-06-29T15:14:36.917Z,3.87
2018-06-29T15:17:06.331Z,3.62
2018-06-29T15:19:36.020Z,3.90
2018-06-29T15:22:05.414Z,3.80
2018-06-29T15:24:34.832Z,3.30
2018-06-29T15:27:04.186Z,3.58
2018-06-29T15:29:33.306Z,3.77
2018-06-29T15:32:02.693Z,3.80
2018-06-29T15:34:31.830Z,3.50
2018-06-29T15:37:01.678Z,3.87
2018-06-29T15:39:31.069Z,4.10
2018-06-29T15:42:00.460Z,4.22
2018-06-29T15:44:29.846Z,3.40
2018-06-29T15:46:59.254Z,3.40
2018-06-29T15:49:28.624Z,3.85
2018-06-29T15:51:58.004Z,3.70
2018-06-29T15:54:27.393Z,4.22
2018-06-29T15:56:56.791Z,3.58
2018-06-29T15:59:26.352Z,3.30
2018-06-29T16:01:55.727Z,3.62
2018-06-29T16:04:24.843Z,3.67
2018-06-29T16:06:55.117Z,3.25
2018-06-29T16:09:24.377Z,4.10
2018-06-29T16:11:53.758Z,3.70
2018-06-29T16:14:23.132Z,3.53
2018-06-29T16:16:52.520Z,3.40
2018-06-29T16:19:21.894Z,3.37
2018-06-29T16:21:51.273Z,3.65
2018-06-29T16:24:20.673Z,3.40
2018-06-29T16:26:50.147Z,3.60
2018-06-29T16:29:19.898Z,4.10
2018-06-29T16:31:49.308Z,3.75
2018-06-29T16:34:19.129Z,3.33
2018-06-29T16:36:48.500Z,2.85
2018-06-29T16:39:17.853Z,3.58
2018-06-29T16:41:47.261Z,3.33
2018-06-29T16:44:16.644Z,3.60
2018-06-29T16:46:46.030Z,3.10
2018-06-29T16:49:15.821Z,3.47
2018-06-29T16:51:45.640Z,3.17
2018-06-29T16:54:15.013Z,3.33
2018-06-29T16:56:44.149Z,3.27
2018-06-29T16:59:13.519Z,3.47
2018-06-29T17:01:42.901Z,3.17
2018-06-29T17:04:12.624Z,3.10
2018-06-29T17:06:42.042Z,3.30
2018-06-29T17:09:11.430Z,3.27
2018-06-29T17:11:40.916Z,3.60
2018-06-29T17:14:10.028Z,3.40
2018-06-29T17:16:39.402Z,3.10
2018-06-29T17:19:09.429Z,3.92
2018-06-29T17:21:39.866Z,2.90
2018-06-29T17:24:10.673Z,2.85
2018-06-29T17:26:40.057Z,3.02
2018-06-29T17:29:09.831Z,3.27
2018-06-29T17:31:39.201Z,3.12
2018-06-29T17:34:09.398Z,3.00
2018-06-29T17:36:38.738Z,3.52
2018-06-29T17:39:10.599Z,3.58
2018-06-29T17:41:40.207Z,3.50
2018-06-29T17:44:10.009Z,2.98
2018-06-29T17:46:39.123Z,3.22
2018-06-29T17:49:09.371Z,3.12
2018-06-29T17:51:38.736Z,3.45
2018-06-29T17:54:09.102Z,3.30
2018-06-29T17:56:38.537Z,3.10
2018-06-29T17:59:07.920Z,3.22
2018-06-29T18:01:37.306Z,3.40
2018-06-29T18:04:06.991Z,3.20
2018-06-29T18:06:36.967Z,3.30
2018-06-29T18:09:09.253Z,3.10
2018-06-29T18:11:38.377Z,2.80
2018-06-29T18:14:07.978Z,2.95
2018-06-29T18:16:37.397Z,3.15
2018-06-29T18:19:06.819Z,3.15
2018-06-29T18:21:36.446Z,3.20
2018-06-29T18:24:06.202Z,3.10
2018-06-29T18:26:36.783Z,3.08
2018-06-29T18:29:06.747Z,3.10
2018-06-29T18:31:36.129Z,3.15
2018-06-29T18:34:05.687Z,3.27
2018-06-29T18:36:35.153Z,2.95
2018-06-29T18:39:06.173Z,2.65
2018-06-29T18:41:35.279Z,3.17
2018-06-29T18:44:04.391Z,2.90
2018-06-29T18:46:33.754Z,2.80
2018-06-29T18:49:03.188Z,3.22
2018-06-29T18:51:32.529Z,3.37
2018-06-29T18:54:01.917Z,2.90
2018-06-29T18:56:31.284Z,3.22
2018-06-29T18:59:00.408Z,3.02
2018-06-29T19:01:29.852Z,3.10
2018-06-29T19:03:59.276Z,3.58
2018-06-29T19:06:28.685Z,3.17
2018-06-29T19:08:57.792Z,3.17
2018-06-29T19:11:27.176Z,3.70
2018-06-29T19:13:56.516Z,3.52
2018-06-29T19:16:25.902Z,3.55
2018-06-29T19:18:55.285Z,3.17
2018-06-29T19:21:24.409Z,3.67
2018-06-29T19:23:53.795Z,3.50
2018-06-29T19:26:23.459Z,3.60
2018-06-29T19:28:53.149Z,3.58
2018-06-29T19:31:22.590Z,3.40
2018-06-29T19:33:51.896Z,3.77
2018-06-29T19:36:21.414Z,3.65
2018-06-29T19:38:50.568Z,3.77
2018-06-29T19:41:19.913Z,4.10
2018-06-29T19:43:49.003Z,3.63
2018-06-29T19:46:18.133Z,3.83
2018-06-29T19:48:47.553Z,3.87
2018-06-29T19:51:16.958Z,3.80
2018-06-29T19:53:46.328Z,3.57
2018-06-29T19:56:15.692Z,4.23
2018-06-29T19:58:45.085Z,3.70
2018-06-29T20:01:14.455Z,4.43
2018-06-29T20:03:43.821Z,3.73
2018-06-29T20:06:13.201Z,3.87
2018-06-29T20:08:42.574Z,4.23
2018-06-29T20:11:12.137Z,3.80
2018-06-29T20:13:42.128Z,3.87
2018-06-29T20:16:11.929Z,4.30
2018-06-29T20:18:41.261Z,4.53
2018-06-29T20:21:10.594Z,4.10
2018-06-29T20:23:39.927Z,4.90
2018-06-29T20:26:09.256Z,4.23
2018-06-29T20:28:39.076Z,4.30
2018-06-29T20:31:08.434Z,4.07
2018-06-29T20:33:37.744Z,4.80
2018-06-29T20:36:07.071Z,4.37
2018-06-29T20:38:36.447Z,3.73
2018-06-29T20:41:05.766Z,4.00
2018-06-29T20:43:35.079Z,4.07
2018-06-29T20:46:04.398Z,3.83
2018-06-29T20:48:33.775Z,4.30
2018-06-29T20:51:03.062Z,3.47
2018-06-29T20:53:32.131Z,4.13
2018-06-29T20:56:01.457Z,4.27
2018-06-29T20:58:30.768Z,4.33
2018-06-29T21:01:00.092Z,4.63
2018-06-29T21:03:29.398Z,4.63
2018-06-29T21:05:58.730Z,4.57
2018-06-29T21:08:28.032Z,4.57
2018-06-29T21:10:57.376Z,3.60
2018-06-29T21:13:26.675Z,4.73
2018-06-29T21:15:56.007Z,4.03
2018-06-29T21:18:25.336Z,3.97
2018-06-29T21:20:54.642Z,3.67
2018-06-29T21:23:23.957Z,3.83
2018-06-29T21:25:53.265Z,4.00
2018-06-29T21:28:22.578Z,4.13
2018-06-29T21:30:51.895Z,4.10
2018-06-29T21:33:21.212Z,3.70
2018-06-29T21:35:50.525Z,3.90
2018-06-29T21:38:19.840Z,4.23
2018-06-29T21:40:49.310Z,4.10
2018-06-29T21:43:18.609Z,3.90
2018-06-29T21:45:47.925Z,3.70
2018-06-29T21:48:17.255Z,3.90
2018-06-29T21:50:46.566Z,4.20
2018-06-29T21:53:15.643Z,3.70
2018-06-29T21:55:44.949Z,3.87
2018-06-29T21:58:14.283Z,3.57
2018-06-29T22:00:45.540Z,3.90
2018-06-29T22:03:14.871Z,3.87
2018-06-29T22:05:44.277Z,4.30
2018-06-29T22:08:13.610Z,4.63
2018-06-29T22:10:42.925Z,4.27
2018-06-29T22:13:12.280Z,4.43
2018-06-29T22:15:41.552Z,4.57
2018-06-29T22:18:10.902Z,4.40
2018-06-29T22:20:40.226Z,3.90
2018-06-29T22:23:09.555Z,4.13
2018-06-29T22:25:38.886Z,3.77
2018-06-29T22:28:09.270Z,3.90
2018-06-29T22:30:38.578Z,3.90
2018-06-29T22:33:07.972Z,4.60
2018-06-29T22:35:37.298Z,4.37
2018-06-29T22:38:06.625Z,4.13
2018-06-29T22:40:35.929Z,4.17
2018-06-29T22:43:05.361Z,4.50
2018-06-29T22:45:34.733Z,4.07
2018-06-29T22:48:04.125Z,3.70
2018-06-29T22:50:33.492Z,4.33
2018-06-29T22:53:02.880Z,4.60
2018-06-29T22:55:32.246Z,4.30
2018-06-29T22:58:01.349Z,4.70
2018-06-29T23:00:30.496Z,4.73
2018-06-29T23:03:07.433Z,4.80
2018-06-29T23:05:36.878Z,4.30
2018-06-29T23:08:07.376Z,5.00
2018-06-29T23:10:36.757Z,4.67
2018-06-29T23:13:06.442Z,4.17
2018-06-29T23:15:35.814Z,4.10
2018-06-29T23:18:05.273Z,4.80
2018-06-29T23:20:34.397Z,4.33
2018-06-29T23:23:03.771Z,4.53
2018-06-29T23:25:33.157Z,4.30
2018-06-29T23:28:02.531Z,4.40
2018-06-29T23:30:31.917Z,4.70
2018-06-29T23:33:01.281Z,4.13
2018-06-29T23:35:30.670Z,4.17
2018-06-29T23:37:59.784Z,4.20
2018-06-29T23:40:29.168Z,4.20
2018-06-29T23:42:58.278Z,4.63
2018-06-29T23:45:27.738Z,5.23
2018-06-29T23:47:57.089Z,4.30
2018-06-29T23:50:26.460Z,4.37
2018-06-29T23:52:55.568Z,4.17
2018-06-29T23:55:24.699Z,4.47
2018-06-29T23:57:54.093Z,4.40
